.
WxDataArchive / Data Records for 2009-09-02
2009-09-01 September 2009 2009-09-03

Data Records for Wednesday, 02 September 2009

Time	Temp	Chill	HIndex	Humid	Dewpt	 Wind 	HiWind	WindDir	Rain 	Barom 
-----	----	-----	------	-----	-----	------	------	-------	-----	----- 
00:00	54.8	54.8	54.8	80	48.7	0	0	---	0.00	30.285 
00:05	54.5	54.5	54.5	81	48.8	0	0	---	0.00	30.285 
00:10	54.2	54.2	54.2	81	48.5	0	0	---	0.00	30.285 
00:15	53.9	53.9	53.9	81	48.2	0	0	---	0.00	30.288 
00:20	53.8	53.8	53.8	82	48.4	0	0	---	0.00	30.288 
00:25	53.5	53.5	53.5	83	48.5	0	0	---	0.00	30.288 
00:30	53.3	53.3	53.3	84	48.6	0	0	---	0.00	30.289 
00:35	53.1	53.1	53.1	84	48.4	0	0	---	0.00	30.289 
00:40	52.9	52.9	52.9	84	48.2	0	0	---	0.00	30.289 
00:45	52.8	52.8	52.8	85	48.4	0	0	---	0.00	30.290 
00:50	52.5	52.5	52.5	85	48.1	0	0	---	0.00	30.290 
00:55	52.3	52.3	52.3	86	48.2	0	0	---	0.00	30.290 
01:00	52.0	52.0	52.0	86	47.9	0	0	---	0.00	30.292 
01:05	51.9	51.9	51.9	87	48.2	0	0	---	0.00	30.292 
01:10	51.6	51.6	51.6	88	48.2	0	0	---	0.00	30.292 
01:15	51.4	51.4	51.4	88	48.0	0	0	---	0.00	30.289 
01:20	51.3	51.3	51.3	88	47.9	0	0	---	0.00	30.289 
01:25	51.1	51.1	51.1	88	47.7	0	0	---	0.00	30.289 
01:30	51.0	51.0	51.0	89	47.9	0	0	---	0.00	30.289 
01:35	50.8	50.8	50.8	89	47.7	0	0	---	0.00	30.289 
01:40	50.5	50.5	50.5	89	47.4	0	0	---	0.00	30.289 
01:45	50.4	50.4	50.4	89	47.3	0	0	---	0.00	30.289 
01:50	50.2	50.2	50.2	89	47.1	0	0	---	0.00	30.289 
01:55	50.1	50.1	50.1	90	47.3	0	0	---	0.00	30.289 
02:00	49.9	49.9	49.9	90	47.1	0	0	---	0.00	30.289 
02:05	49.8	49.8	49.8	90	47.0	0	0	---	0.00	30.289 
02:10	49.6	49.6	49.6	90	46.8	0	0	---	0.00	30.289 
02:15	49.6	49.6	49.6	91	47.1	0	0	---	0.00	30.288 
02:20	49.5	49.5	49.5	91	47.0	0	0	---	0.00	30.288 
02:25	49.4	49.4	49.4	91	46.9	0	0	---	0.00	30.288 
02:30	49.2	49.2	49.2	91	46.7	0	0	---	0.00	30.288 
02:35	49.2	49.2	49.2	91	46.7	0	0	---	0.00	30.288 
02:40	49.1	49.1	49.1	92	46.9	0	0	---	0.00	30.288 
02:45	48.9	48.9	48.9	92	46.7	0	0	---	0.00	30.287 
02:50	48.9	48.9	48.9	92	46.7	0	0	---	0.00	30.287 
02:55	48.8	48.8	48.8	92	46.6	0	0	---	0.00	30.287 
03:00	48.8	48.8	48.8	92	46.6	0	0	---	0.00	30.288 
03:05	48.6	48.6	48.6	92	46.4	0	0	---	0.00	30.288 
03:10	48.6	48.6	48.6	92	46.4	0	0	---	0.00	30.288 
03:15	48.5	48.5	48.5	92	46.3	0	0	---	0.00	30.287 
03:20	48.5	48.5	48.5	92	46.3	0	0	---	0.00	30.287 
03:25	48.5	48.5	48.5	92	46.3	0	0	---	0.00	30.287 
03:30	48.3	48.3	48.3	93	46.4	0	0	---	0.00	30.286 
03:35	48.3	48.3	48.3	93	46.4	0	0	---	0.00	30.286 
03:40	48.3	48.3	48.3	93	46.4	0	0	---	0.00	30.286 
03:45	48.3	48.3	48.3	93	46.4	0	0	---	0.00	30.287 
03:50	48.2	48.2	48.2	93	46.3	0	0	---	0.00	30.287 
03:55	48.2	48.2	48.2	93	46.3	0	0	---	0.00	30.287 
04:00	48.0	48.0	48.0	93	46.1	0	0	---	0.00	30.285 
04:05	48.0	48.0	48.0	93	46.1	0	0	---	0.00	30.285 
04:10	47.9	47.9	47.9	93	46.0	0	0	---	0.00	30.285 
04:15	47.9	47.9	47.9	93	46.0	0	0	---	0.00	30.285 
04:20	47.9	47.9	47.9	94	46.3	0	0	---	0.00	30.285 
04:25	47.7	47.7	47.7	94	46.1	0	0	---	0.00	30.285 
04:30	47.7	47.7	47.7	94	46.1	0	0	---	0.00	30.284 
04:35	47.7	47.7	47.7	94	46.1	0	0	---	0.00	30.284 
04:40	47.6	47.6	47.6	94	46.0	0	0	---	0.00	30.284 
04:45	47.6	47.6	47.6	94	46.0	0	0	---	0.00	30.281 
04:50	47.4	47.4	47.4	94	45.8	0	0	---	0.00	30.281 
04:55	47.4	47.4	47.4	94	45.8	0	0	---	0.00	30.281 
05:00	47.4	47.4	47.4	94	45.8	0	0	---	0.00	30.278 
05:05	47.3	47.3	47.3	94	45.7	0	0	---	0.00	30.278 
05:10	47.3	47.3	47.3	94	45.7	0	0	---	0.00	30.278 
05:15	47.3	47.3	47.3	94	45.7	0	0	---	0.00	30.280 
05:20	47.1	47.1	47.1	94	45.5	0	0	---	0.00	30.280 
05:25	47.1	47.1	47.1	94	45.5	0	0	---	0.00	30.280 
05:30	47.1	47.1	47.1	95	45.7	0	0	---	0.00	30.278 
05:35	47.1	47.1	47.1	95	45.7	0	0	---	0.00	30.278 
05:40	47.1	47.1	47.1	95	45.7	0	0	---	0.00	30.278 
05:45	47.0	47.0	47.0	95	45.6	0	0	---	0.00	30.280 
05:50	47.0	47.0	47.0	95	45.6	0	0	---	0.00	30.280 
05:55	47.0	47.0	47.0	95	45.6	0	0	---	0.00	30.280 
06:00	46.8	46.8	46.8	95	45.4	0	0	---	0.00	30.282 
06:05	46.8	46.8	46.8	95	45.4	0	0	---	0.00	30.282 
06:10	46.7	46.7	46.7	95	45.3	0	0	---	0.00	30.282 
06:15	46.7	46.7	46.7	95	45.3	0	0	---	0.00	30.288 
06:20	46.8	46.8	46.8	95	45.4	0	0	---	0.00	30.288 
06:25	46.8	46.8	46.8	95	45.4	0	0	---	0.00	30.288 
06:30	46.8	46.8	46.8	95	45.4	0	0	---	0.00	30.289 
06:35	46.7	46.7	46.7	95	45.3	0	0	---	0.00	30.289 
06:40	46.7	46.7	46.7	95	45.3	0	0	---	0.00	30.289 
06:45	46.7	46.7	46.7	95	45.3	0	0	---	0.00	30.292 
06:50	46.7	46.7	46.7	95	45.3	0	0	---	0.00	30.292 
06:55	46.7	46.7	46.7	95	45.3	0	0	---	0.00	30.292 
07:00	46.7	46.7	46.7	95	45.3	0	0	---	0.00	30.293 
07:05	46.7	46.7	46.7	95	45.3	0	0	---	0.00	30.293 
07:10	46.7	46.7	46.7	95	45.3	0	0	---	0.00	30.293 
07:15	46.8	46.8	46.8	95	45.4	0	0	---	0.00	30.295 
07:20	46.8	46.8	46.8	96	45.7	0	0	---	0.00	30.295 
07:25	46.8	46.8	46.8	96	45.7	0	0	---	0.00	30.295 
07:30	47.0	47.0	47.0	96	45.9	0	0	---	0.00	30.298 
07:35	47.1	47.1	47.1	96	46.0	0	0	---	0.00	30.298 
07:40	47.3	47.3	47.3	96	46.2	0	0	---	0.00	30.298 
07:45	47.6	47.6	47.6	96	46.5	0	0	---	0.00	30.302 
07:50	47.9	47.9	47.9	96	46.8	0	0	---	0.00	30.302 
07:55	48.3	48.3	48.3	96	47.2	0	0	---	0.00	30.302 
08:00	48.8	48.8	48.8	96	47.7	0	0	---	0.00	30.307 
08:05	49.2	49.2	49.2	96	48.1	0	0	---	0.00	30.307 
08:10	49.9	49.9	49.9	96	48.8	0	0	---	0.00	30.307 
08:15	50.8	50.8	50.8	97	50.0	0	0	---	0.00	30.310 
08:20	51.6	51.6	51.6	97	50.8	0	0	---	0.00	30.310 
08:25	52.2	52.2	52.2	97	51.4	0	2	90	0.00	30.310 
08:30	52.8	52.8	52.8	96	51.7	0	2	90	0.00	30.309 
08:35	53.2	53.2	53.2	96	52.1	0	2	90	0.00	30.309 
08:40	53.6	53.6	53.6	95	52.2	0	1	90	0.00	30.309 
08:45	54.1	54.1	54.1	93	52.1	0	1	90	0.00	30.310 
08:50	54.4	54.4	54.4	91	51.8	1	2	90	0.00	30.310 
08:55	54.7	54.7	54.7	89	51.5	1	3	90	0.00	30.310 
09:00	55.1	55.1	55.1	88	51.6	0	1	90	0.00	30.310 
09:05	55.6	55.6	55.6	87	51.8	1	4	90	0.00	30.310 
09:10	56.0	56.0	56.0	86	51.9	0	2	135	0.00	30.310 
09:15	56.5	56.5	56.5	84	51.7	1	5	112	0.00	30.309 
09:20	57.2	57.2	57.2	83	52.1	1	3	112	0.00	30.309 
09:25	57.8	57.8	57.8	81	52.0	1	3	112	0.00	30.309 
09:30	58.1	58.1	58.1	81	52.3	1	5	90	0.00	30.306 
09:35	58.4	58.4	58.4	81	52.6	1	3	112	0.00	30.306 
09:40	58.9	58.9	58.9	82	53.4	1	3	112	0.00	30.306 
09:45	59.3	59.3	59.3	81	53.5	0	2	112	0.00	30.305 
09:50	59.6	59.6	59.6	81	53.8	1	3	112	0.00	30.305 
09:55	59.9	59.9	59.9	79	53.4	1	3	112	0.00	30.305 
10:00	60.4	60.4	60.4	80	54.2	0	2	112	0.00	30.301 
10:05	60.7	60.7	60.7	78	53.8	0	2	112	0.00	30.301 
10:10	61.3	61.3	61.3	78	54.4	0	3	112	0.00	30.301 
10:15	62.1	62.1	62.1	76	54.4	0	3	112	0.00	30.296 
10:20	62.9	62.9	62.9	73	54.1	1	4	112	0.00	30.296 
10:25	63.7	63.7	63.7	72	54.5	1	2	112	0.00	30.296 
10:30	64.3	64.3	64.3	70	54.3	1	3	112	0.00	30.291 
10:35	65.0	65.0	65.0	68	54.2	1	4	112	0.00	30.291 
10:40	65.8	65.8	65.8	68	54.9	0	3	112	0.00	30.291 
10:45	66.4	66.4	66.4	65	54.3	1	4	90	0.00	30.292 
10:50	66.8	66.8	66.8	63	53.8	1	4	90	0.00	30.292 
10:55	66.9	66.9	66.9	64	54.3	2	4	90	0.00	30.292 
11:00	67.4	67.4	67.4	65	55.2	1	3	90	0.00	30.283 
11:05	67.6	67.6	67.6	64	55.0	2	4	90	0.00	30.283 
11:10	68.1	68.1	68.1	68	57.1	1	5	90	0.00	30.283 
11:15	68.1	68.1	68.1	63	55.0	2	6	90	0.00	30.285 
11:20	68.3	68.3	68.3	60	53.9	2	5	68	0.00	30.285 
11:25	68.4	68.4	68.4	65	56.2	1	4	90	0.00	30.285 
11:30	68.9	68.9	68.9	61	54.9	2	5	112	0.00	30.284 
11:35	69.4	69.4	69.4	61	55.4	2	5	90	0.00	30.284 
11:40	69.6	69.6	69.6	59	54.6	2	6	90	0.00	30.284 
11:45	69.9	69.9	69.9	62	56.3	2	5	90	0.00	30.284 
11:50	70.3	70.3	70.3	58	54.8	1	4	90	0.00	30.284 
11:55	70.6	70.6	70.6	57	54.6	1	4	90	0.00	30.284 
12:00	70.9	70.9	70.9	56	54.4	2	5	90	0.00	30.280 
12:05	70.9	70.9	70.9	58	55.4	2	5	90	0.00	30.280 
12:10	71.1	71.1	71.1	55	54.1	2	5	112	0.00	30.280 
12:15	71.1	71.1	71.1	51	52.0	3	7	90	0.00	30.277 
12:20	71.1	71.1	71.1	54	53.6	2	6	90	0.00	30.277 
12:25	71.3	71.3	71.3	50	51.7	2	9	90	0.00	30.277 
12:30	71.3	71.3	71.3	51	52.2	2	9	112	0.00	30.272 
12:35	71.5	71.5	71.5	47	50.2	2	5	112	0.00	30.272 
12:40	72.0	72.0	72.0	49	51.8	1	6	112	0.00	30.272 
12:45	72.0	72.0	72.0	47	50.7	2	6	90	0.00	30.269 
12:50	72.0	72.0	72.0	48	51.2	2	7	90	0.00	30.269 
12:55	72.0	72.0	72.0	47	50.7	2	6	112	0.00	30.269 
13:00	72.1	72.1	72.1	46	50.2	1	4	90	0.00	30.266 
13:05	72.5	72.5	72.5	45	49.9	2	5	90	0.00	30.266 
13:10	72.8	72.8	72.8	48	52.0	1	4	90	0.00	30.266 
13:15	72.8	72.8	72.8	49	52.5	2	5	90	0.00	30.261 
13:20	72.5	72.5	72.5	45	49.9	3	6	90	0.00	30.261 
13:25	72.1	72.1	72.1	49	51.9	2	7	90	0.00	30.261 
13:30	72.0	72.0	72.0	48	51.2	3	7	90	0.00	30.256 
13:35	72.1	72.1	72.1	50	52.4	2	7	90	0.00	30.256 
13:40	72.1	72.1	72.1	49	51.9	3	9	90	0.00	30.256 
13:45	72.3	72.3	72.3	50	52.6	3	8	90	0.00	30.255 
13:50	72.8	72.8	72.8	48	52.0	2	10	112	0.00	30.255 
13:55	72.8	72.8	72.8	51	53.6	3	8	90	0.00	30.255 
14:00	73.0	73.0	73.0	44	49.8	2	7	90	0.00	30.254 
14:05	73.0	73.0	73.0	48	52.1	2	7	90	0.00	30.254 
14:10	73.3	73.3	73.3	46	51.3	1	7	90	0.00	30.254 
14:15	73.7	73.7	73.7	43	49.8	2	6	112	0.00	30.256 
14:20	73.7	73.7	73.7	46	51.6	1	7	90	0.00	30.256 
14:25	73.9	73.9	73.9	49	53.5	1	4	90	0.00	30.256 
14:30	74.0	74.0	74.0	46	51.9	2	7	90	0.00	30.254 
14:35	74.0	74.0	74.0	49	53.6	0	3	90	0.00	30.254 
14:40	74.2	74.2	74.2	46	52.1	2	5	90	0.00	30.254 
14:45	74.0	74.0	74.0	49	53.6	2	3	90	0.00	30.251 
14:50	74.0	74.0	74.0	48	53.0	1	5	90	0.00	30.251 
14:55	74.0	74.0	74.0	46	51.9	2	5	90	0.00	30.251 
15:00	74.2	74.2	74.2	49	53.8	1	4	90	0.00	30.247 
15:05	74.6	74.6	74.6	50	54.7	2	6	90	0.00	30.247 
15:10	74.6	74.6	74.6	43	50.6	2	5	112	0.00	30.247 
15:15	74.6	74.6	74.6	49	54.2	1	4	90	0.00	30.239 
15:20	74.9	74.9	74.9	46	52.7	2	5	90	0.00	30.239 
15:25	74.7	74.7	74.7	43	50.7	2	6	112	0.00	30.239 
15:30	74.6	74.6	74.6	43	50.6	2	7	112	0.00	30.238 
15:35	74.6	74.6	74.6	45	51.8	1	5	90	0.00	30.238 
15:40	74.9	74.9	74.9	47	53.3	1	3	68	0.00	30.238 
15:45	74.9	74.9	74.9	46	52.7	1	4	112	0.00	30.237 
15:50	75.1	75.1	77.6	45	52.3	1	5	112	0.00	30.237 
15:55	74.9	74.9	74.9	43	50.9	2	5	90	0.00	30.237 
16:00	74.9	74.9	74.9	43	50.9	1	4	90	0.00	30.236 
16:05	75.1	75.1	77.6	44	51.7	1	4	112	0.00	30.236 
16:10	75.1	75.1	77.6	44	51.7	2	5	90	0.00	30.236 
16:15	75.1	75.1	77.7	47	53.5	1	5	90	0.00	30.225 
16:20	75.1	75.1	77.6	44	51.7	1	4	90	0.00	30.225 
16:25	75.1	75.1	77.6	43	51.1	2	3	90	0.00	30.225 
16:30	75.1	75.1	77.6	42	50.4	1	3	90	0.00	30.223 
16:35	75.1	75.1	77.7	46	52.9	2	4	90	0.00	30.223 
16:40	75.1	75.1	77.7	46	52.9	2	6	112	0.00	30.223 
16:45	74.9	74.9	74.9	46	52.7	2	7	90	0.00	30.217 
16:50	74.7	74.7	74.7	45	51.9	1	5	90	0.00	30.217 
16:55	74.6	74.6	74.6	45	51.8	2	6	90	0.00	30.217 
17:00	74.6	74.6	74.6	43	50.6	2	6	90	0.00	30.214 
17:05	74.6	74.6	74.6	45	51.8	2	5	90	0.00	30.214 
17:10	74.6	74.6	74.6	44	51.2	1	4	112	0.00	30.214 
17:15	74.4	74.4	74.4	44	51.0	2	5	90	0.00	30.208 
17:20	74.4	74.4	74.4	44	51.0	2	5	90	0.00	30.208 
17:25	74.6	74.6	74.6	47	53.0	0	2	90	0.00	30.208 
17:30	74.6	74.6	74.6	49	54.2	1	4	90	0.00	30.204 
17:35	74.6	74.6	74.6	46	52.4	2	5	90	0.00	30.204 
17:40	74.4	74.4	74.4	47	52.8	1	5	112	0.00	30.204 
17:45	74.4	74.4	74.4	47	52.8	1	5	112	0.00	30.203 
17:50	74.2	74.2	74.2	47	52.7	2	5	90	0.00	30.203 
17:55	74.2	74.2	74.2	47	52.7	1	3	112	0.00	30.203 
18:00	74.0	74.0	74.0	50	54.2	1	4	90	0.00	30.195 
18:05	73.9	73.9	73.9	47	52.4	1	4	90	0.00	30.195 
18:10	73.9	73.9	73.9	46	51.8	1	4	90	0.00	30.195 
18:15	73.7	73.7	73.7	47	52.2	1	7	112	0.00	30.194 
18:20	73.7	73.7	73.7	50	53.9	1	5	112	0.00	30.194 
18:25	73.5	73.5	73.5	49	53.2	0	2	112	0.00	30.194 
18:30	73.3	73.3	73.3	49	53.0	1	4	112	0.00	30.193 
18:35	73.2	73.2	73.2	50	53.4	1	3	90	0.00	30.193 
18:40	73.0	73.0	73.0	50	53.2	0	3	90	0.00	30.193 
18:45	72.8	72.8	72.8	50	53.1	0	2	90	0.00	30.191 
18:50	72.7	72.7	72.7	50	53.0	1	6	112	0.00	30.191 
18:55	72.7	72.7	72.7	52	54.0	1	4	90	0.00	30.191 
19:00	72.5	72.5	72.5	52	53.9	0	2	90	0.00	30.189 
19:05	72.3	72.3	72.3	52	53.7	0	3	112	0.00	30.189 
19:10	72.1	72.1	72.1	54	54.5	0	1	112	0.00	30.189 
19:15	72.0	72.0	72.0	54	54.4	0	1	112	0.00	30.183 
19:20	71.6	71.6	71.6	55	54.6	0	1	112	0.00	30.183 
19:25	71.3	71.3	71.3	55	54.3	0	1	112	0.00	30.183 
19:30	71.1	71.1	71.1	56	54.6	0	3	112	0.00	30.179 
19:35	70.9	70.9	70.9	56	54.4	0	2	135	0.00	30.179 
19:40	70.8	70.8	70.8	57	54.8	0	1	135	0.00	30.179 
19:45	70.4	70.4	70.4	57	54.4	0	1	135	0.00	30.178 
19:50	70.1	70.1	70.1	58	54.6	0	1	135	0.00	30.178 
19:55	69.6	69.6	69.6	58	54.2	0	2	135	0.00	30.178 
20:00	69.3	69.3	69.3	59	54.3	0	0	---	0.00	30.174 
20:05	68.8	68.8	68.8	60	54.3	0	0	---	0.00	30.174 
20:10	68.4	68.4	68.4	61	54.4	0	0	---	0.00	30.174 
20:15	67.9	67.9	67.9	62	54.4	0	0	---	0.00	30.169 
20:20	67.4	67.4	67.4	64	54.8	0	0	---	0.00	30.169 
20:25	66.9	66.9	66.9	64	54.3	0	0	---	0.00	30.169 
20:30	66.4	66.4	66.4	65	54.3	0	0	---	0.00	30.172 
20:35	66.1	66.1	66.1	66	54.4	0	0	---	0.00	30.172 
20:40	65.8	65.8	65.8	66	54.1	0	0	---	0.00	30.172 
20:45	65.3	65.3	65.3	67	54.1	0	0	---	0.00	30.175 
20:50	65.0	65.0	65.0	67	53.8	0	0	---	0.00	30.175 
20:55	64.7	64.7	64.7	68	53.9	0	0	---	0.00	30.175 
21:00	64.5	64.5	64.5	69	54.1	0	0	---	0.00	30.175 
21:05	64.2	64.2	64.2	69	53.8	0	0	---	0.00	30.175 
21:10	64.0	64.0	64.0	70	54.0	0	0	---	0.00	30.175 
21:15	63.7	63.7	63.7	70	53.7	0	0	---	0.00	30.173 
21:20	63.5	63.5	63.5	71	53.9	0	0	---	0.00	30.173 
21:25	63.5	63.5	63.5	71	53.9	0	1	135	0.00	30.173 
21:30	63.4	63.4	63.4	71	53.8	0	0	---	0.00	30.177 
21:35	63.4	63.4	63.4	72	54.2	0	1	135	0.00	30.177 
21:40	63.4	63.4	63.4	72	54.2	0	1	135	0.00	30.177 
21:45	63.4	63.4	63.4	72	54.2	0	0	---	0.00	30.183 
21:50	63.4	63.4	63.4	72	54.2	0	1	135	0.00	30.183 
21:55	63.4	63.4	63.4	72	54.2	0	0	---	0.00	30.183 
22:00	63.2	63.2	63.2	73	54.4	0	1	135	0.00	30.190 
22:05	63.1	63.1	63.1	73	54.3	0	1	135	0.00	30.190 
22:10	63.1	63.1	63.1	73	54.3	0	1	135	0.00	30.190 
22:15	63.1	63.1	63.1	74	54.7	0	0	---	0.00	30.185 
22:20	62.9	62.9	62.9	74	54.5	0	0	---	0.00	30.185 
22:25	62.7	62.7	62.7	74	54.3	0	0	---	0.00	30.185 
22:30	62.4	62.4	62.4	75	54.4	0	0	---	0.00	30.186 
22:35	62.1	62.1	62.1	76	54.4	0	0	---	0.00	30.186 
22:40	62.0	62.0	62.0	77	54.7	0	1	135	0.00	30.186 
22:45	61.6	61.6	61.6	78	54.7	0	0	---	0.00	30.187 
22:50	61.6	61.6	61.6	78	54.7	0	2	135	0.00	30.187 
22:55	61.6	61.6	61.6	78	54.7	0	1	135	0.00	30.187 
23:00	61.6	61.6	61.6	78	54.7	0	0	---	0.00	30.187 
23:05	61.5	61.5	61.5	79	54.9	0	1	135	0.00	30.187 
23:10	61.3	61.3	61.3	79	54.7	0	0	---	0.00	30.187 
23:15	61.2	61.2	61.2	79	54.6	0	0	---	0.00	30.189 
23:20	60.9	60.9	60.9	79	54.3	0	0	---	0.00	30.189 
23:25	60.5	60.5	60.5	80	54.3	0	0	---	0.00	30.189 
23:30	60.1	60.1	60.1	81	54.2	0	0	---	0.00	30.192 
23:35	59.8	59.8	59.8	81	54.0	0	0	---	0.00	30.192 
23:40	59.5	59.5	59.5	82	54.0	0	0	---	0.00	30.192 
23:45	59.2	59.2	59.2	83	54.0	0	0	---	0.00	30.189 
23:50	58.9	58.9	58.9	84	54.1	0	0	---	0.00	30.189 
23:55	58.6	58.6	58.6	84	53.8	0	0	---	0.00	30.189 

CoCoRaHS
IN-AL-39
A2 Web Hosting
Creative Commons License
GoDaddy
search engine by freefind advanced

loaded 2018-11-13 17:53:30 • last modified 2010-11-18 10:43:29
Privacy PolicyDisclaimer
• wx.awcolley.com is powered by PmWiki v.2002016 •
• all content (unless otherwise noted) © 2018 A W Colley